Time;durP1;ratioP1;P1;durP2;ratioP2;P2;SDS_P1;SDS_P2;PMS_P1;PMS_P2;Temp;Humidity;BMP_temperature;BMP_pressure;BME280_temperature;BME280_humidity;BME280_pressure;Samples;Min_cycle;Max_cycle;Signal;HPM_P1;HPM_P2
2022/09/07 00:01:16;;;;;;;11.85;5.07;;;;;;;5.17;100.00;99968.47;5172010;27;20050;-54
2022/09/07 00:03:43;;;;;;;14.40;4.20;;;;;;;5.15;100.00;99959.81;5172030;27;20083;-55
2022/09/07 00:06:11;;;;;;;13.18;4.32;;;;;;;5.16;100.00;99971.50;5172066;27;20078;-54
2022/09/07 00:08:39;;;;;;;12.25;5.18;;;;;;;5.18;100.00;99975.50;5171949;27;20425;-54
2022/09/07 00:11:07;;;;;;;11.90;4.93;;;;;;;5.17;100.00;99984.00;5171956;27;20054;-54
2022/09/07 00:13:36;;;;;;;11.43;4.30;;;;;;;5.16;100.00;99985.09;5172357;27;20050;-56
2022/09/07 00:16:06;;;;;;;19.35;5.53;;;;;;;5.11;100.00;99983.31;5175677;27;20050;-54
2022/09/07 00:18:33;;;;;;;12.75;5.53;;;;;;;5.09;100.00;99971.91;5175884;27;20082;-55
2022/09/07 00:21:00;;;;;;;8.40;4.32;;;;;;;5.03;100.00;99969.63;5175730;27;20045;-55
2022/09/07 00:23:28;;;;;;;15.90;4.65;;;;;;;5.01;100.00;99969.97;5175573;27;20539;-54
2022/09/07 00:25:59;;;;;;;23.83;4.43;;;;;;;5.02;100.00;99974.28;5175648;27;20042;-55
2022/09/07 00:28:25;;;;;;;8.77;4.35;;;;;;;5.02;100.00;99971.56;5175324;27;20137;-53
2022/09/07 00:30:51;;;;;;;15.30;4.82;;;;;;;4.98;100.00;99970.56;5175354;27;20462;-53
2022/09/07 00:33:18;;;;;;;19.55;4.35;;;;;;;4.95;100.00;99971.97;5175210;27;20042;-54
2022/09/07 00:35:45;;;;;;;9.02;3.83;;;;;;;4.91;100.00;99975.63;5175176;27;20086;-54
2022/09/07 00:38:11;;;;;;;10.45;4.68;;;;;;;4.87;100.00;99974.66;5175271;27;20046;-53
2022/09/07 00:40:38;;;;;;;12.57;4.32;;;;;;;4.85;100.00;99991.25;5175053;27;20494;-54
2022/09/07 00:43:05;;;;;;;10.07;4.85;;;;;;;4.86;100.00;99989.31;5175074;27;20094;-55
2022/09/07 00:45:31;;;;;;;16.02;4.13;;;;;;;4.81;100.00;100003.84;5175270;27;20053;-55
2022/09/07 00:48:02;;;;;;;11.88;4.65;;;;;;;4.82;100.00;100008.16;5174977;27;20519;-54
2022/09/07 00:50:34;;;;;;;9.45;4.15;;;;;;;4.82;100.00;100007.34;5174753;27;20140;-57
2022/09/07 00:53:06;;;;;;;14.50;4.68;;;;;;;4.77;100.00;100008.28;5175062;27;20197;-53
2022/09/07 00:55:34;;;;;;;12.63;4.63;;;;;;;4.73;100.00;100009.97;5174776;27;20149;-56
2022/09/07 00:58:02;;;;;;;9.38;5.13;;;;;;;4.46;100.00;100044.22;5174946;27;20046;-54
2022/09/07 01:00:29;;;;;;;18.30;5.05;;;;;;;4.64;100.00;100064.22;5174843;27;20569;-55
2022/09/07 01:02:57;;;;;;;9.93;4.85;;;;;;;4.69;100.00;100064.09;5174825;27;20501;-54
2022/09/07 01:05:28;;;;;;;11.48;4.72;;;;;;;4.61;100.00;100059.41;5174796;27;20051;-54
2022/09/07 01:07:56;;;;;;;9.65;4.03;;;;;;;4.63;100.00;100059.09;5174587;27;20046;-54
2022/09/07 01:10:25;;;;;;;11.15;4.70;;;;;;;4.63;100.00;100062.63;5174467;27;20097;-53
2022/09/07 01:12:52;;;;;;;13.70;4.78;;;;;;;4.59;100.00;100060.81;5175036;27;20091;-55
2022/09/07 01:15:23;;;;;;;8.32;4.43;;;;;;;4.50;100.00;100060.72;5174665;27;20081;-54
2022/09/07 01:17:59;;;;;;;11.93;4.97;;;;;;;4.55;100.00;100062.53;5174668;27;20046;-54
2022/09/07 01:20:49;;;;;;;10.80;4.65;;;;;;;4.52;100.00;100066.63;5174608;27;20092;-54
2022/09/07 01:24:02;;;;;;;12.95;4.32;;;;;;;4.52;100.00;100063.13;5174505;27;20194;-56
2022/09/07 01:27:04;;;;;;;18.90;4.47;;;;;;;4.50;100.00;100055.28;5127363;27;20062;-54
2022/09/07 01:29:38;;;;;;;15.20;4.72;;;;;;;4.54;100.00;100055.50;5141745;27;20537;-56
2022/09/07 01:32:12;;;;;;;9.40;4.30;;;;;;;4.43;100.00;100052.16;5174341;27;20155;-57
2022/09/07 01:34:39;;;;;;;15.60;4.17;;;;;;;4.51;100.00;100064.25;5174409;27;20577;-56
2022/09/07 01:37:15;;;;;;;15.45;4.15;;;;;;;4.43;100.00;100063.84;5174249;27;20082;-56
2022/09/07 01:39:47;;;;;;;9.27;4.35;;;;;;;4.44;100.00;100072.78;5174568;27;20057;-57
2022/09/07 01:42:15;;;;;;;9.65;4.45;;;;;;;4.42;100.00;100050.56;5174008;27;20088;-56
2022/09/07 01:44:47;;;;;;;10.15;3.90;;;;;;;4.32;100.00;100062.41;5174307;27;20129;-54
2022/09/07 01:47:20;;;;;;;8.98;3.95;;;;;;;4.40;100.00;100064.44;5174101;27;20046;-57
2022/09/07 01:49:54;;;;;;;9.27;4.27;;;;;;;4.38;100.00;100065.84;5174028;27;20046;-57
2022/09/07 01:52:28;;;;;;;11.20;4.50;;;;;;;4.40;100.00;100069.06;5174453;27;20082;-53
2022/09/07 01:55:00;;;;;;;14.20;4.25;;;;;;;4.36;100.00;100068.84;5173888;27;20088;-54
2022/09/07 01:57:31;;;;;;;13.45;4.22;;;;;;;4.34;100.00;100049.34;5173930;27;20102;-53
2022/09/07 02:00:04;;;;;;;17.35;3.70;;;;;;;4.31;100.00;100049.16;5173837;27;20081;-55
2022/09/07 02:02:38;;;;;;;9.13;3.97;;;;;;;4.31;100.00;100057.31;5173930;27;20050;-55
2022/09/07 02:05:10;;;;;;;8.45;3.95;;;;;;;4.30;100.00;100056.50;5173877;27;20045;-54
2022/09/07 02:07:41;;;;;;;9.88;4.18;;;;;;;4.34;100.00;100052.06;5173950;27;20046;-53
2022/09/07 02:10:13;;;;;;;10.15;4.13;;;;;;;4.33;100.00;100060.50;5173772;27;20050;-54
2022/09/07 02:12:45;;;;;;;7.68;3.80;;;;;;;4.28;100.00;100049.75;5173874;27;20102;-54
2022/09/07 02:15:16;;;;;;;15.02;5.30;;;;;;;4.26;100.00;100047.31;5173708;27;20042;-57
2022/09/07 02:17:45;;;;;;;12.15;4.82;;;;;;;4.27;100.00;100048.16;5173418;27;20049;-53
2022/09/07 02:20:16;;;;;;;7.70;4.10;;;;;;;4.20;100.00;100045.84;5173738;27;20054;-56
2022/09/07 02:22:48;;;;;;;11.55;4.50;;;;;;;4.21;100.00;100048.25;5173411;27;20054;-56
2022/09/07 02:25:21;;;;;;;9.77;4.38;;;;;;;4.16;100.00;100044.81;5173704;27;20061;-55
2022/09/07 02:27:53;;;;;;;7.73;3.77;;;;;;;4.17;100.00;100041.81;5173356;27;20544;-54
2022/09/07 02:30:20;;;;;;;9.30;3.85;;;;;;;4.19;100.00;100045.00;5173519;27;20527;-53
2022/09/07 02:32:46;;;;;;;8.48;4.05;;;;;;;4.19;100.00;100041.50;5173282;27;20093;-54
2022/09/07 02:35:13;;;;;;;7.15;4.18;;;;;;;4.14;100.00;100036.19;5173172;27;20138;-56
2022/09/07 02:37:41;;;;;;;13.45;3.92;;;;;;;4.14;100.00;100045.13;5173360;27;20061;-54
2022/09/07 02:40:09;;;;;;;9.45;3.90;;;;;;;4.16;100.00;100045.59;5173251;27;20102;-53
2022/09/07 02:42:36;;;;;;;7.38;3.63;;;;;;;4.14;100.00;100039.69;5173526;27;20103;-56
2022/09/07 02:45:07;;;;;;;7.32;3.58;;;;;;;3.92;100.00;100042.28;5172975;27;20050;-55
2022/09/07 02:47:45;;;;;;;8.30;3.42;;;;;;;4.11;100.00;100048.44;5173095;27;20086;-57
2022/09/07 02:50:41;;;;;;;8.13;3.53;;;;;;;4.06;100.00;100051.22;5173104;27;20501;-55
2022/09/07 02:53:46;;;;;;;7.05;3.30;;;;;;;4.05;100.00;100057.78;5172653;27;20054;-55
2022/09/07 02:56:21;;;;;;;;;;;;;;;3.85;100.00;100058.13;5173521;27;20054;-56
2022/09/07 02:58:54;;;;;;;9.50;4.00;;;;;;;3.95;100.00;100066.09;5172854;27;20022;-53
2022/09/07 03:01:32;;;;;;;8.73;4.10;;;;;;;4.00;100.00;100063.31;5172812;27;20054;-56
2022/09/07 03:04:07;;;;;;;9.13;3.70;;;;;;;4.04;100.00;100053.44;5172708;27;20102;-55
2022/09/07 03:06:40;;;;;;;7.95;3.83;;;;;;;4.00;100.00;100055.97;5173054;27;20078;-58
2022/09/07 03:09:12;;;;;;;10.27;3.60;;;;;;;3.96;100.00;100049.50;5173252;27;20073;-58
2022/09/07 03:11:38;;;;;;;9.40;3.67;;;;;;;4.03;100.00;100054.53;5172802;27;20141;-54
2022/09/07 03:14:13;;;;;;;6.63;4.00;;;;;;;4.06;100.00;100051.22;5172716;27;20092;-56
2022/09/07 03:16:39;;;;;;;6.53;3.15;;;;;;;3.96;100.00;100049.50;5172748;27;20470;-55
2022/09/07 03:19:06;;;;;;;9.55;4.35;;;;;;;3.96;100.00;100049.50;5172902;27;20078;-54
2022/09/07 03:21:33;;;;;;;9.43;3.58;;;;;;;4.00;100.00;100055.16;5172529;27;20046;-56
2022/09/07 03:23:59;;;;;;;7.78;3.22;;;;;;;4.02;100.00;100044.78;5172538;27;20057;-53
2022/09/07 03:26:25;;;;;;;9.00;3.80;;;;;;;4.04;100.00;100049.94;5172687;27;20042;-55
2022/09/07 03:28:52;;;;;;;8.98;3.97;;;;;;;4.06;100.00;100045.00;5172535;27;20106;-55
2022/09/07 03:31:18;;;;;;;7.93;3.22;;;;;;;4.02;100.00;100047.50;5172663;27;20110;-56
2022/09/07 03:33:44;;;;;;;10.07;3.88;;;;;;;4.06;100.00;100042.28;5172624;27;20082;-54
2022/09/07 03:36:11;;;;;;;8.10;3.80;;;;;;;4.09;100.00;100041.69;5172573;27;20082;-55
2022/09/07 03:38:38;;;;;;;11.95;4.60;;;;;;;3.99;100.00;100042.69;5172547;27;20099;-53
2022/09/07 03:41:06;;;;;;;5.85;3.90;;;;;;;4.11;100.00;100044.91;5172558;27;20096;-55
2022/09/07 03:43:34;;;;;;;8.20;4.00;;;;;;;4.15;100.00;100043.22;5172304;27;20058;-56
2022/09/07 03:46:02;;;;;;;14.55;4.38;;;;;;;4.13;100.00;100042.69;5172404;27;20050;-55
2022/09/07 03:48:30;;;;;;;12.98;4.55;;;;;;;4.09;100.00;100047.13;5171527;27;20050;-54
2022/09/07 03:50:58;;;;;;;8.27;4.45;;;;;;;4.17;100.00;100036.38;5172036;27;20046;-54
2022/09/07 03:53:26;;;;;;;8.88;3.90;;;;;;;4.19;100.00;100042.28;5172175;27;20050;-57
2022/09/07 03:55:56;;;;;;;5.80;3.55;;;;;;;4.19;100.00;100045.00;5172694;27;20085;-57
2022/09/07 03:58:22;;;;;;;7.88;4.10;;;;;;;4.16;100.00;100036.66;5172070;27;20097;-54
2022/09/07 04:00:49;;;;;;;12.02;3.72;;;;;;;3.96;100.00;100038.66;5171987;27;20137;-55
2022/09/07 04:03:15;;;;;;;9.30;4.05;;;;;;;4.19;100.00;100038.78;5172479;27;20078;-54
2022/09/07 04:05:41;;;;;;;7.32;3.83;;;;;;;4.35;100.00;100039.28;5172146;27;20500;-55
2022/09/07 04:08:08;;;;;;;11.35;4.10;;;;;;;4.76;100.00;100047.41;5172603;27;20081;-54
2022/09/07 04:10:37;;;;;;;5.65;3.25;;;;;;;5.71;100.00;100030.25;5171776;27;20536;-58
2022/09/07 04:13:03;;;;;;;11.65;3.58;;;;;;;6.45;100.00;99975.97;5172023;27;20054;-54
2022/09/07 04:15:30;;;;;;;9.65;3.30;;;;;;;7.27;100.00;99804.38;5171953;27;20500;-56
2022/09/07 04:17:56;;;;;;;8.20;3.30;;;;;;;7.84;100.00;99456.44;5171869;27;20042;-54
2022/09/07 04:20:23;;;;;;;7.80;3.78;;;;;;;8.53;100.00;99116.75;5172235;27;20046;-57
2022/09/07 04:22:49;;;;;;;6.32;3.17;;;;;;;9.09;100.00;98812.97;5172285;27;20094;-56
2022/09/07 04:25:16;;;;;;;11.68;3.20;;;;;;;9.45;100.00;98662.31;5171841;27;20078;-54
2022/09/07 04:27:43;;;;;;;8.07;3.50;;;;;;;9.54;100.00;98624.53;5171709;27;20051;-59
2022/09/07 04:30:10;;;;;;;9.02;3.10;;;;;;;9.99;100.00;98611.75;5172134;27;20061;-58
2022/09/07 04:32:37;;;;;;;8.27;3.33;;;;;;;10.49;100.00;98640.50;5171909;27;20110;-58
2022/09/07 04:35:04;;;;;;;9.65;3.10;;;;;;;10.61;100.00;98688.78;5172213;27;20149;-58
2022/09/07 04:37:32;;;;;;;7.13;3.00;;;;;;;10.94;100.00;98712.59;5171831;27;20050;-58
2022/09/07 04:39:58;;;;;;;8.48;2.75;;;;;;;11.25;100.00;98737.94;5171859;27;20073;-57
2022/09/07 04:42:24;;;;;;;8.43;2.88;;;;;;;11.67;100.00;98772.38;5171527;27;20081;-58
2022/09/07 04:44:51;;;;;;;5.75;2.53;;;;;;;11.80;100.00;98792.88;5171560;27;20082;-58
2022/09/07 04:47:18;;;;;;;9.35;3.17;;;;;;;11.78;100.00;98798.72;5171421;27;20050;-59
2022/09/07 04:49:44;;;;;;;9.48;3.03;;;;;;;11.43;100.00;98779.22;5171443;27;20082;-57
2022/09/07 04:52:10;;;;;;;6.45;3.55;;;;;;;11.43;100.00;98766.31;5171444;27;20077;-59
2022/09/07 04:54:36;;;;;;;10.13;3.55;;;;;;;11.54;100.00;98758.94;5171332;27;20520;-58
2022/09/07 04:57:03;;;;;;;9.00;5.78;;;;;;;12.17;100.00;98787.25;5171482;27;20057;-60
2022/09/07 04:59:29;;;;;;;8.15;3.38;;;;;;;12.71;100.00;98813.00;5171195;27;20104;-59
2022/09/07 05:01:56;;;;;;;7.85;3.60;;;;;;;12.94;100.00;98870.47;5174183;27;20050;-59
2022/09/07 05:04:23;;;;;;;9.20;3.65;;;;;;;13.48;100.00;98886.34;5174692;27;20054;-59
2022/09/07 05:06:49;;;;;;;9.23;3.55;;;;;;;13.67;100.00;98921.81;5175114;27;20046;-60
2022/09/07 05:09:15;;;;;;;8.73;5.20;;;;;;;14.42;100.00;98946.59;5174724;27;20476;-59
2022/09/07 05:11:41;;;;;;;7.65;3.17;;;;;;;14.64;100.00;98971.44;5174499;27;20082;-60
2022/09/07 05:14:10;;;;;;;17.25;3.63;;;;;;;15.03;100.00;99010.00;5174512;27;20137;-61
2022/09/07 05:16:36;;;;;;;10.73;3.33;;;;;;;14.80;100.00;99002.97;5174293;27;20504;-54
2022/09/07 05:19:04;;;;;;;11.68;3.65;;;;;;;15.46;100.00;99021.69;5174610;27;20046;-55
2022/09/07 05:21:33;;;;;;;8.55;3.72;;;;;;;15.40;100.00;99012.25;5174406;27;20141;-52
2022/09/07 05:24:00;;;;;;;7.82;3.78;;;;;;;15.73;100.00;99019.22;5174780;27;20449;-54
2022/09/07 05:26:28;;;;;;;5.72;3.17;;;;;;;16.38;100.00;99016.81;5174247;27;20081;-52
2022/09/07 05:28:55;;;;;;;9.38;3.70;;;;;;;16.47;100.00;99046.78;5174256;27;20133;-55
2022/09/07 05:31:23;;;;;;;23.70;3.95;;;;;;;16.82;100.00;99054.00;5173995;27;20163;-58
2022/09/07 05:33:50;;;;;;;11.88;3.60;;;;;;;16.77;100.00;99070.31;5174453;27;20042;-56
2022/09/07 05:36:19;;;;;;;11.27;3.42;;;;;;;17.13;100.00;99043.06;5174521;27;20175;-56
2022/09/07 05:38:46;;;;;;;9.57;3.30;;;;;;;17.26;100.00;99066.25;5174426;27;20083;-54
2022/09/07 05:41:13;;;;;;;10.68;3.80;;;;;;;17.57;100.00;99058.00;5174053;27;20050;-53
2022/09/07 05:43:40;;;;;;;16.73;4.65;;;;;;;17.79;100.00;99075.16;5174091;27;20543;-53
2022/09/07 05:46:07;;;;;;;19.63;6.00;;;;;;;18.06;100.00;99075.19;5173839;27;20054;-56
2022/09/07 05:48:33;;;;;;;19.00;3.47;;;;;;;18.23;100.00;99099.16;5174034;27;20185;-58
2022/09/07 05:50:59;;;;;;;9.30;3.33;;;;;;;18.42;100.00;99094.09;5174151;27;20103;-57
2022/09/07 05:53:26;;;;;;;9.85;3.15;;;;;;;18.95;100.00;99096.06;5173407;27;20053;-58
2022/09/07 05:55:56;;;;;;;8.27;3.25;;;;;;;18.88;100.00;99126.72;5173630;27;20078;-57
2022/09/07 05:58:23;;;;;;;5.50;3.17;;;;;;;19.23;100.00;99127.34;5173942;27;20560;-49
2022/09/07 06:00:49;;;;;;;16.33;3.42;;;;;;;19.80;100.00;99140.19;5173835;27;20099;-55
2022/09/07 06:03:15;;;;;;;9.55;3.50;;;;;;;19.79;100.00;99146.16;5173747;27;20405;-53
2022/09/07 06:05:42;;;;;;;7.82;2.63;;;;;;;20.26;100.00;99160.72;5173649;27;20129;-54
2022/09/07 06:08:08;;;;;;;20.42;2.75;;;;;;;20.00;100.00;99173.56;5173446;27;20146;-52
2022/09/07 06:10:36;;;;;;;10.05;2.00;;;;;;;20.25;100.00;99186.97;5173540;27;20057;-55
2022/09/07 06:13:03;;;;;;;4.90;2.10;;;;;;;19.92;97.92;99194.38;5173071;27;20417;-52
2022/09/07 06:15:31;;;;;;;8.80;2.10;;;;;;;20.44;95.70;99193.72;5173485;27;20114;-52
2022/09/07 06:17:57;;;;;;;8.05;2.60;;;;;;;20.70;94.33;99188.44;5173661;27;20405;-54
2022/09/07 06:20:24;;;;;;;9.98;1.98;;;;;;;21.02;93.56;99193.22;5173617;27;20085;-56
2022/09/07 06:22:50;;;;;;;11.00;2.13;;;;;;;21.17;93.43;99185.31;5173240;27;20505;-55
2022/09/07 06:25:16;;;;;;;12.32;2.50;;;;;;;21.30;92.11;99195.31;5173538;27;20145;-52
2022/09/07 06:27:46;;;;;;;6.03;2.30;;;;;;;21.51;91.43;99196.03;5173253;27;20130;-52
2022/09/07 06:30:13;;;;;;;6.70;2.05;;;;;;;21.75;89.46;99191.78;5173183;27;20054;-51
2022/09/07 06:32:39;;;;;;;6.72;2.10;;;;;;;21.81;88.92;99200.41;5173309;27;20054;-51
2022/09/07 06:35:06;;;;;;;7.63;2.10;;;;;;;21.91;87.52;99190.94;5172798;27;20504;-51
2022/09/07 06:37:33;;;;;;;7.13;2.45;;;;;;;22.13;87.84;99195.94;5173026;27;20138;-56
2022/09/07 06:39:59;;;;;;;6.65;1.80;;;;;;;22.38;84.84;99198.78;5172956;27;20048;-57
2022/09/07 06:42:25;;;;;;;6.00;2.17;;;;;;;22.21;86.67;99194.53;5172784;27;20133;-55
2022/09/07 06:44:52;;;;;;;4.63;2.30;;;;;;;22.53;86.69;99199.16;5172863;27;20402;-56
2022/09/07 06:47:18;;;;;;;2.65;1.90;;;;;;;22.94;84.23;99197.53;5172754;27;20161;-56
2022/09/07 06:49:45;;;;;;;5.28;1.98;;;;;;;22.81;83.18;99208.69;5173205;27;20077;-56
2022/09/07 06:52:11;;;;;;;4.72;2.00;;;;;;;23.09;81.80;99214.59;5173032;27;20481;-52
2022/09/07 06:54:38;;;;;;;4.60;1.60;;;;;;;23.09;78.88;99212.63;5172647;27;20063;-55
2022/09/07 06:57:07;;;;;;;8.85;1.90;;;;;;;23.09;79.68;99211.81;5172994;27;20140;-56
2022/09/07 06:59:34;;;;;;;11.95;2.10;;;;;;;23.06;79.21;99213.53;5172894;27;20069;-56
2022/09/07 07:02:01;;;;;;;3.50;2.13;;;;;;;23.31;80.25;99204.28;5172698;27;20054;-56
2022/09/07 07:04:27;;;;;;;3.28;1.60;;;;;;;23.65;79.31;99208.34;5172810;27;20046;-56
2022/09/07 07:06:53;;;;;;;3.88;1.33;;;;;;;23.70;77.57;99210.59;5172609;27;20046;-55
2022/09/07 07:09:19;;;;;;;3.83;1.77;;;;;;;23.50;76.87;99205.25;5172711;27;20081;-56
2022/09/07 07:11:46;;;;;;;4.47;1.92;;;;;;;23.68;76.68;99207.47;5172541;27;20053;-55
2022/09/07 07:14:14;;;;;;;5.68;1.77;;;;;;;23.41;76.00;99205.94;5172697;27;20050;-55
2022/09/07 07:16:40;;;;;;;8.30;1.70;;;;;;;23.66;75.98;99204.31;5172419;27;20053;-56
2022/09/07 07:19:07;;;;;;;3.05;1.33;;;;;;;23.30;76.59;99205.53;5172624;27;20077;-56
2022/09/07 07:21:33;;;;;;;8.10;1.55;;;;;;;23.23;76.29;99197.38;5172552;27;20086;-55
2022/09/07 07:24:00;;;;;;;4.03;1.40;;;;;;;23.36;76.84;99200.94;5171360;27;20134;-55
2022/09/07 07:26:26;;;;;;;4.35;1.50;;;;;;;23.90;74.48;99216.69;5172061;27;20050;-56
2022/09/07 07:28:55;;;;;;;3.22;1.20;;;;;;;22.98;71.78;99218.53;5172195;27;20138;-56
2022/09/07 07:31:24;;;;;;;6.57;1.38;;;;;;;23.18;72.86;99212.69;5172094;27;20082;-53
2022/09/07 07:33:52;;;;;;;4.25;1.40;;;;;;;23.39;71.03;99216.00;5172085;27;20129;-54
2022/09/07 07:36:21;;;;;;;4.70;1.55;;;;;;;23.85;68.92;99220.03;5172306;27;20089;-55
2022/09/07 07:38:49;;;;;;;6.60;1.30;;;;;;;24.03;68.17;99229.84;5172261;27;20050;-57
2022/09/07 07:41:17;;;;;;;5.97;1.08;;;;;;;23.61;66.54;99232.88;5172059;27;20092;-56
2022/09/07 07:43:44;;;;;;;2.60;1.40;;;;;;;23.66;66.82;99230.28;5172346;27;20425;-56
2022/09/07 07:46:13;;;;;;;1.25;1.00;;;;;;;23.77;69.07;99224.34;5153695;27;20448;-56
2022/09/07 07:48:39;;;;;;;5.60;1.45;;;;;;;23.93;70.20;99217.78;5172107;27;20053;-56
2022/09/07 07:51:09;;;;;;;3.40;1.50;;;;;;;23.70;71.08;99216.97;5172462;27;20046;-56
2022/09/07 07:53:38;;;;;;;7.18;1.48;;;;;;;24.23;69.76;99221.91;5153895;27;20501;-56
2022/09/07 07:56:05;;;;;;;5.57;1.50;;;;;;;24.59;68.44;99226.16;5171991;27;20545;-56
2022/09/07 07:58:34;;;;;;;2.95;1.77;;;;;;;24.16;70.12;99231.34;5171976;27;20082;-56
2022/09/07 08:01:02;;;;;;;11.57;2.08;;;;;;;24.62;67.14;99223.25;5172193;27;20119;-56
2022/09/07 08:03:33;;;;;;;6.05;1.40;;;;;;;24.71;67.25;99228.13;5171912;27;20147;-53
2022/09/07 08:06:06;;;;;;;9.20;1.90;;;;;;;24.68;71.53;99203.81;5171734;27;20042;-51
2022/09/07 08:08:34;;;;;;;9.13;1.83;;;;;;;25.25;70.56;99215.56;5171807;27;20065;-53
2022/09/07 08:11:02;;;;;;;7.40;2.28;;;;;;;25.05;73.43;99201.13;5171673;27;20428;-57
2022/09/07 08:13:32;;;;;;;8.80;2.00;;;;;;;25.32;70.97;99206.06;5171690;27;20146;-52
2022/09/07 08:16:01;;;;;;;8.82;2.53;;;;;;;25.23;71.47;99203.25;5170989;27;20046;-54
2022/09/07 08:18:27;;;;;;;4.05;2.35;;;;;;;25.51;69.77;99204.84;5153165;27;20042;-54
2022/09/07 08:20:58;;;;;;;3.42;1.50;;;;;;;25.43;65.06;99209.22;5171669;27;20046;-57
2022/09/07 08:23:25;;;;;;;4.68;1.30;;;;;;;25.14;65.31;99204.00;5171589;27;20106;-54
2022/09/07 08:25:53;;;;;;;5.32;1.40;;;;;;;25.24;64.26;99207.63;5171717;27;20051;-55
2022/09/07 08:28:22;;;;;;;7.40;1.55;;;;;;;25.13;66.58;99204.47;5171629;27;20046;-55
2022/09/07 08:30:48;;;;;;;2.13;1.63;;;;;;;24.92;68.54;99204.03;5171561;27;20054;-55
2022/09/07 08:33:16;;;;;;;5.70;1.55;;;;;;;25.23;65.87;99206.84;5171494;27;20043;-52
2022/09/07 08:35:42;;;;;;;5.85;1.85;;;;;;;24.55;66.89;99194.72;5173895;27;20082;-54
2022/09/07 08:38:09;;;;;;;5.70;2.20;;;;;;;24.64;66.85;99194.75;5174946;27;20509;-56
2022/09/07 08:40:37;;;;;;;5.03;1.40;;;;;;;24.80;66.36;99188.13;5174921;27;20057;-53
2022/09/07 08:43:11;;;;;;;3.05;1.40;;;;;;;24.45;66.44;99188.28;5174522;27;20043;-53
2022/09/07 08:45:42;;;;;;;4.78;1.60;;;;;;;24.19;66.29;99174.41;5175066;27;20061;-53
2022/09/07 08:48:12;;;;;;;2.22;1.60;;;;;;;24.44;69.18;99180.34;5175037;27;20493;-54
2022/09/07 08:50:46;;;;;;;6.28;2.38;;;;;;;24.44;68.25;99163.53;5174775;27;20043;-53
2022/09/07 08:53:15;;;;;;;8.07;2.25;;;;;;;24.04;66.04;99164.97;5174935;27;20505;-52
2022/09/07 08:55:47;;;;;;;3.17;1.63;;;;;;;24.02;67.11;99163.88;5174908;27;20043;-52
2022/09/07 08:58:17;;;;;;;5.13;1.88;;;;;;;24.12;67.62;99162.69;5174988;27;20050;-52
2022/09/07 09:00:44;;;;;;;7.35;2.50;;;;;;;24.07;68.08;99157.69;5175040;27;20050;-53
2022/09/07 09:03:19;;;;;;;10.35;2.30;;;;;;;23.64;68.66;99156.41;5174965;27;20046;-55
2022/09/07 09:05:57;;;;;;;2.92;1.55;;;;;;;23.96;66.09;99163.69;5174644;27;20051;-56
2022/09/07 09:08:40;;;;;;;4.18;1.92;;;;;;;23.70;69.20;99151.84;5174862;27;20141;-55
2022/09/07 09:11:10;;;;;;;2.42;1.58;;;;;;;23.68;67.80;99154.28;5174846;27;20061;-52
2022/09/07 09:13:53;;;;;;;3.03;1.70;;;;;;;24.27;67.10;99155.31;5174609;27;20050;-51
2022/09/07 09:16:27;;;;;;;4.50;2.33;;;;;;;24.48;67.12;99145.31;5174710;27;20054;-55
2022/09/07 09:19:05;;;;;;;6.55;1.77;;;;;;;24.20;66.15;99150.00;5174458;27;20533;-54
2022/09/07 09:21:33;;;;;;;4.20;2.00;;;;;;;24.23;65.04;99137.09;5174336;27;20046;-55
2022/09/07 09:24:14;;;;;;;7.30;1.67;;;;;;;23.61;67.62;99126.53;5174301;27;20513;-54
2022/09/07 09:26:44;;;;;;;2.35;1.10;;;;;;;23.96;68.09;99135.69;5174537;27;20047;-53
2022/09/07 09:29:14;;;;;;;7.43;1.80;;;;;;;23.29;68.82;99125.63;5174292;27;20054;-50
2022/09/07 09:31:41;;;;;;;3.15;1.60;;;;;;;24.06;67.74;99123.31;5174221;27;20054;-55
2022/09/07 09:34:10;;;;;;;5.70;1.70;;;;;;;24.19;65.95;99126.81;5174167;27;20052;-52
2022/09/07 09:36:42;;;;;;;9.60;1.70;;;;;;;23.94;67.06;99127.72;5174067;27;20050;-55
2022/09/07 09:39:28;;;;;;;9.63;1.30;;;;;;;23.91;68.10;99120.25;5174533;27;20042;-58
2022/09/07 09:41:57;;;;;;;4.90;1.95;;;;;;;24.45;67.62;99111.84;5173993;27;20094;-54
2022/09/07 09:44:28;;;;;;;4.22;1.85;;;;;;;24.30;65.96;99115.19;5174065;27;20054;-55
2022/09/07 09:46:55;;;;;;;4.55;1.95;;;;;;;24.15;68.80;99114.16;5173005;27;20069;-57
2022/09/07 09:49:25;;;;;;;6.97;2.22;;;;;;;24.35;67.42;99117.38;5173919;27;20510;-56
2022/09/07 09:51:55;;;;;;;6.82;2.15;;;;;;;24.28;68.72;99114.84;5174156;27;20109;-55
2022/09/07 09:54:25;;;;;;;4.15;2.38;;;;;;;24.18;69.25;99108.41;5173861;27;20513;-55
2022/09/07 09:56:52;;;;;;;3.22;2.30;;;;;;;24.40;67.75;99111.19;5173786;27;20056;-56
2022/09/07 09:59:24;;;;;;;4.63;2.05;;;;;;;23.61;71.81;99106.94;5173830;27;20079;-54
2022/09/07 10:01:50;;;;;;;5.68;1.90;;;;;;;23.67;70.92;99099.53;5173731;27;20501;-55
2022/09/07 10:04:29;;;;;;;4.88;2.22;;;;;;;23.44;73.86;99092.38;5173727;27;20046;-55
2022/09/07 10:07:00;;;;;;;10.52;2.45;;;;;;;22.23;76.23;99100.72;5173599;27;20497;-54
2022/09/07 10:09:33;;;;;;;9.52;3.03;;;;;;;23.07;72.93;99100.44;5173804;27;20046;-55
2022/09/07 10:12:01;;;;;;;6.22;2.08;;;;;;;22.84;71.37;99104.38;5173666;27;20050;-56
2022/09/07 10:14:30;;;;;;;6.78;2.47;;;;;;;22.65;73.04;99091.41;5173805;27;20046;-55
2022/09/07 10:16:57;;;;;;;5.45;1.63;;;;;;;22.60;73.81;99089.97;5173575;27;20046;-54
2022/09/07 10:19:31;;;;;;;4.10;1.60;;;;;;;23.00;73.09;99087.47;5173697;27;20402;-56
2022/09/07 10:21:59;;;;;;;3.70;1.50;;;;;;;22.26;73.87;99091.44;5173149;27;20058;-55
2022/09/07 10:24:27;;;;;;;4.45;1.85;;;;;;;22.85;71.87;99091.16;5173323;27;20042;-56
2022/09/07 10:26:54;;;;;;;4.28;1.85;;;;;;;23.11;71.77;99091.94;5173346;27;20060;-56
2022/09/07 10:29:28;;;;;;;10.48;3.03;;;;;;;23.04;70.09;99106.16;5173279;27;20051;-55
2022/09/07 10:32:12;;;;;;;8.75;2.55;;;;;;;22.59;72.95;99099.56;5173271;27;20061;-58
2022/09/07 10:34:44;;;;;;;;;;;;;;;22.96;69.46;99100.81;5173829;27;20057;-52
2022/09/07 10:37:19;;;;;;;8.30;2.03;;;;;;;22.84;69.73;99095.22;5173456;27;19922;-55
2022/09/07 10:39:59;;;;;;;5.25;1.77;;;;;;;23.02;69.28;99090.63;5173288;27;20541;-56
2022/09/07 10:42:32;;;;;;;7.57;1.50;;;;;;;22.00;71.99;99081.47;5172992;27;20050;-54
2022/09/07 10:45:11;;;;;;;6.97;1.70;;;;;;;21.89;73.90;99081.75;5172998;27;20174;-55
2022/09/07 10:47:47;;;;;;;4.47;1.70;;;;;;;22.67;71.57;99075.78;5172945;27;20050;-55
2022/09/07 10:50:28;;;;;;;7.88;2.05;;;;;;;22.62;69.41;99095.09;5172995;27;20054;-57
2022/09/07 10:53:06;;;;;;;10.63;2.28;;;;;;;21.98;71.58;99081.88;5172833;27;20494;-56
2022/09/07 10:55:35;;;;;;;5.40;1.63;;;;;;;21.80;73.36;99074.06;5173209;27;20103;-56
2022/09/07 10:58:17;;;;;;;7.07;2.50;;;;;;;21.97;70.62;99077.53;5172499;27;20050;-56
2022/09/07 11:00:56;;;;;;;3.83;2.17;;;;;;;21.01;72.45;99069.81;5172791;27;20046;-56
2022/09/07 11:03:40;;;;;;;7.80;1.75;;;;;;;21.53;72.37;99070.84;5172826;27;20050;-55
2022/09/07 11:06:15;;;;;;;9.98;1.95;;;;;;;21.57;71.45;99077.88;5172670;27;20050;-55
2022/09/07 11:08:57;;;;;;;5.63;1.40;;;;;;;21.09;72.03;99067.63;5173059;27;20497;-53
2022/09/07 11:11:27;;;;;;;4.82;1.33;;;;;;;20.04;77.62;99051.84;5172492;27;20054;-55
2022/09/07 11:13:56;;;;;;;24.73;2.15;;;;;;;20.11;77.80;99064.81;5172473;27;20482;-54
2022/09/07 11:16:25;;;;;;;10.73;1.27;;;;;;;19.75;81.96;99057.25;5172597;27;20046;-57
2022/09/07 11:18:53;;;;;;;6.78;1.38;;;;;;;19.11;84.68;99036.25;5172374;27;20094;-56
2022/09/07 11:21:27;;;;;;;1.90;1.23;;;;;;;19.32;84.86;99035.06;5172859;27;20052;-55
2022/09/07 11:23:58;;;;;;;1.80;1.15;;;;;;;19.25;82.50;99039.53;5172792;27;20050;-55
2022/09/07 11:26:30;;;;;;;3.60;1.30;;;;;;;19.09;84.99;99036.66;5172286;27;20102;-56
2022/09/07 11:28:59;;;;;;;5.65;1.10;;;;;;;19.39;83.88;99030.16;5172300;27;20497;-55
2022/09/07 11:31:31;;;;;;;4.60;1.30;;;;;;;19.54;84.37;99029.84;5172805;27;20046;-56
2022/09/07 11:34:02;;;;;;;4.95;1.08;;;;;;;19.07;86.91;99032.75;5172116;27;20050;-54
2022/09/07 11:36:35;;;;;;;3.45;1.10;;;;;;;18.33;87.74;99025.28;5172848;27;20403;-55
2022/09/07 11:39:06;;;;;;;4.97;1.00;;;;;;;18.33;88.82;99014.94;5172464;27;20046;-54
2022/09/07 11:41:39;;;;;;;4.28;1.10;;;;;;;18.01;93.45;99004.34;5172347;27;20504;-54